Terminal Aerodrome Forecast
Issued by NWS

Home | Current Version | Previous Version | Text Only | Print | Product List | Glossary On
Versions: 1 2 3 4 5 6 7 8 9 10 11 12
000
FTUS45 KREV 291720
TAFTVL
TAF
KTVL 291720Z 2918/3018 20010G18KT P6SM SCT100
     FM300400 20010G18KT P6SM SCT100 WS020/24035KT
     FM301700 20015G25KT P6SM SCT060 BKN100=

USA.gov is the U.S. government's official web portal to all federal, state and local government web resources and services.